sensor_id;sensor_type;location;lat;lon;timestamp;temperature;humidity
30534;DHT22;17318;52.390;9.754;2023-06-19T00:00:53;23.40;69.10
30534;DHT22;17318;52.390;9.754;2023-06-19T00:03:19;23.40;68.60
30534;DHT22;17318;52.390;9.754;2023-06-19T00:05:44;23.40;68.70
30534;DHT22;17318;52.390;9.754;2023-06-19T00:08:10;23.40;68.70
30534;DHT22;17318;52.390;9.754;2023-06-19T00:10:36;23.30;68.80
30534;DHT22;17318;52.390;9.754;2023-06-19T00:13:01;23.30;69.00
30534;DHT22;17318;52.390;9.754;2023-06-19T00:15:27;23.20;68.80
30534;DHT22;17318;52.390;9.754;2023-06-19T00:17:56;23.20;68.80
30534;DHT22;17318;52.390;9.754;2023-06-19T00:20:22;23.20;69.00
30534;DHT22;17318;52.390;9.754;2023-06-19T00:22:48;23.20;68.90
30534;DHT22;17318;52.390;9.754;2023-06-19T00:25:17;23.20;69.00
30534;DHT22;17318;52.390;9.754;2023-06-19T00:27:43;23.20;69.30
30534;DHT22;17318;52.390;9.754;2023-06-19T00:30:09;23.10;69.60
30534;DHT22;17318;52.390;9.754;2023-06-19T00:32:35;23.10;69.00
30534;DHT22;17318;52.390;9.754;2023-06-19T00:35:14;23.10;69.50
30534;DHT22;17318;52.390;9.754;2023-06-19T00:37:40;23.10;69.20
30534;DHT22;17318;52.390;9.754;2023-06-19T00:40:16;23.10;70.40
30534;DHT22;17318;52.390;9.754;2023-06-19T00:42:45;23.10;69.50
30534;DHT22;17318;52.390;9.754;2023-06-19T00:45:10;23.10;69.40
30534;DHT22;17318;52.390;9.754;2023-06-19T00:47:36;23.10;69.50
30534;DHT22;17318;52.390;9.754;2023-06-19T00:50:02;23.00;69.70
30534;DHT22;17318;52.390;9.754;2023-06-19T00:52:28;23.00;69.80
30534;DHT22;17318;52.390;9.754;2023-06-19T00:54:53;22.90;70.40
30534;DHT22;17318;52.390;9.754;2023-06-19T00:57:19;22.90;70.00
30534;DHT22;17318;52.390;9.754;2023-06-19T00:59:45;22.90;69.80
30534;DHT22;17318;52.390;9.754;2023-06-19T01:02:11;23.00;69.30
30534;DHT22;17318;52.390;9.754;2023-06-19T01:04:36;23.00;69.70
30534;DHT22;17318;52.390;9.754;2023-06-19T01:07:09;23.00;69.90
30534;DHT22;17318;52.390;9.754;2023-06-19T01:09:44;22.90;70.00
30534;DHT22;17318;52.390;9.754;2023-06-19T01:12:24;22.90;70.30
30534;DHT22;17318;52.390;9.754;2023-06-19T01:14:57;22.90;70.20
30534;DHT22;17318;52.390;9.754;2023-06-19T01:17:25;22.90;70.40
30534;DHT22;17318;52.390;9.754;2023-06-19T01:19:51;22.90;70.50
30534;DHT22;17318;52.390;9.754;2023-06-19T01:22:30;22.90;70.00
30534;DHT22;17318;52.390;9.754;2023-06-19T01:24:56;22.90;70.90
30534;DHT22;17318;52.390;9.754;2023-06-19T01:27:25;22.90;70.40
30534;DHT22;17318;52.390;9.754;2023-06-19T01:29:56;22.90;70.20
30534;DHT22;17318;52.390;9.754;2023-06-19T01:32:53;22.90;70.40
30534;DHT22;17318;52.390;9.754;2023-06-19T01:35:22;22.90;70.20
30534;DHT22;17318;52.390;9.754;2023-06-19T01:37:49;22.90;70.40
30534;DHT22;17318;52.390;9.754;2023-06-19T01:40:16;22.90;70.50
30534;DHT22;17318;52.390;9.754;2023-06-19T01:42:42;22.80;70.40
30534;DHT22;17318;52.390;9.754;2023-06-19T01:45:09;22.90;70.80
30534;DHT22;17318;52.390;9.754;2023-06-19T01:47:34;22.80;71.10
30534;DHT22;17318;52.390;9.754;2023-06-19T01:50:00;22.80;71.20
30534;DHT22;17318;52.390;9.754;2023-06-19T01:52:26;22.80;70.80
30534;DHT22;17318;52.390;9.754;2023-06-19T01:54:52;22.80;70.40
30534;DHT22;17318;52.390;9.754;2023-06-19T01:57:17;22.80;70.90
30534;DHT22;17318;52.390;9.754;2023-06-19T01:59:43;22.80;70.90
30534;DHT22;17318;52.390;9.754;2023-06-19T02:02:09;22.80;71.40
30534;DHT22;17318;52.390;9.754;2023-06-19T02:04:35;22.70;71.30
30534;DHT22;17318;52.390;9.754;2023-06-19T02:07:01;22.80;70.90
30534;DHT22;17318;52.390;9.754;2023-06-19T02:09:27;22.70;71.20
30534;DHT22;17318;52.390;9.754;2023-06-19T02:11:53;22.70;71.50
30534;DHT22;17318;52.390;9.754;2023-06-19T02:14:18;22.60;71.60
30534;DHT22;17318;52.390;9.754;2023-06-19T02:16:44;22.60;71.80
30534;DHT22;17318;52.390;9.754;2023-06-19T02:19:11;22.60;71.70
30534;DHT22;17318;52.390;9.754;2023-06-19T02:21:37;22.60;71.50
30534;DHT22;17318;52.390;9.754;2023-06-19T02:24:02;22.60;71.50
30534;DHT22;17318;52.390;9.754;2023-06-19T02:26:28;22.50;72.30
30534;DHT22;17318;52.390;9.754;2023-06-19T02:28:55;22.60;72.40
30534;DHT22;17318;52.390;9.754;2023-06-19T02:31:24;22.60;72.60
30534;DHT22;17318;52.390;9.754;2023-06-19T02:33:50;22.40;73.00
30534;DHT22;17318;52.390;9.754;2023-06-19T02:36:16;22.30;73.40
30534;DHT22;17318;52.390;9.754;2023-06-19T02:38:48;22.40;73.40
30534;DHT22;17318;52.390;9.754;2023-06-19T02:41:14;22.40;73.50
30534;DHT22;17318;52.390;9.754;2023-06-19T02:43:42;22.40;73.50
30534;DHT22;17318;52.390;9.754;2023-06-19T02:46:07;22.40;73.40
30534;DHT22;17318;52.390;9.754;2023-06-19T02:48:33;22.40;73.40
30534;DHT22;17318;52.390;9.754;2023-06-19T02:50:59;22.40;73.30
30534;DHT22;17318;52.390;9.754;2023-06-19T02:53:24;22.40;73.00
30534;DHT22;17318;52.390;9.754;2023-06-19T02:55:50;22.50;73.10
30534;DHT22;17318;52.390;9.754;2023-06-19T02:58:16;22.40;72.80
30534;DHT22;17318;52.390;9.754;2023-06-19T03:00:41;22.40;72.80
30534;DHT22;17318;52.390;9.754;2023-06-19T03:03:07;22.40;72.60
30534;DHT22;17318;52.390;9.754;2023-06-19T03:05:33;22.40;73.00
30534;DHT22;17318;52.390;9.754;2023-06-19T03:07:58;22.40;73.10
30534;DHT22;17318;52.390;9.754;2023-06-19T03:10:24;22.40;72.90
30534;DHT22;17318;52.390;9.754;2023-06-19T03:12:50;22.40;73.00
30534;DHT22;17318;52.390;9.754;2023-06-19T03:15:15;22.40;72.90
30534;DHT22;17318;52.390;9.754;2023-06-19T03:17:41;22.30;72.70
30534;DHT22;17318;52.390;9.754;2023-06-19T03:20:07;22.30;72.80
30534;DHT22;17318;52.390;9.754;2023-06-19T03:22:40;22.30;72.80
30534;DHT22;17318;52.390;9.754;2023-06-19T03:25:06;22.20;73.00
30534;DHT22;17318;52.390;9.754;2023-06-19T03:27:33;22.40;72.90
30534;DHT22;17318;52.390;9.754;2023-06-19T03:29:58;22.40;73.00
30534;DHT22;17318;52.390;9.754;2023-06-19T03:32:24;22.30;73.00
30534;DHT22;17318;52.390;9.754;2023-06-19T03:34:50;22.30;73.30
30534;DHT22;17318;52.390;9.754;2023-06-19T03:37:16;22.30;73.20
30534;DHT22;17318;52.390;9.754;2023-06-19T03:39:42;22.20;73.00
30534;DHT22;17318;52.390;9.754;2023-06-19T03:42:08;22.20;73.00
30534;DHT22;17318;52.390;9.754;2023-06-19T03:44:34;22.20;73.70
30534;DHT22;17318;52.390;9.754;2023-06-19T03:46:59;22.20;73.10
30534;DHT22;17318;52.390;9.754;2023-06-19T03:49:25;22.20;72.70
30534;DHT22;17318;52.390;9.754;2023-06-19T03:51:51;22.20;72.90
30534;DHT22;17318;52.390;9.754;2023-06-19T03:54:17;22.20;73.00
30534;DHT22;17318;52.390;9.754;2023-06-19T03:56:43;22.20;72.90
30534;DHT22;17318;52.390;9.754;2023-06-19T03:59:08;22.20;73.10
30534;DHT22;17318;52.390;9.754;2023-06-19T04:01:34;22.30;72.40
30534;DHT22;17318;52.390;9.754;2023-06-19T04:03:59;22.30;73.30
30534;DHT22;17318;52.390;9.754;2023-06-19T04:06:25;22.30;73.00
30534;DHT22;17318;52.390;9.754;2023-06-19T04:08:52;22.30;73.30
30534;DHT22;17318;52.390;9.754;2023-06-19T04:11:17;22.20;73.80
30534;DHT22;17318;52.390;9.754;2023-06-19T04:13:43;22.20;73.90
30534;DHT22;17318;52.390;9.754;2023-06-19T04:16:09;22.20;74.20
30534;DHT22;17318;52.390;9.754;2023-06-19T04:18:35;22.20;74.20
30534;DHT22;17318;52.390;9.754;2023-06-19T04:21:00;22.20;74.20
30534;DHT22;17318;52.390;9.754;2023-06-19T04:23:26;22.20;73.80
30534;DHT22;17318;52.390;9.754;2023-06-19T04:25:51;22.20;74.10
30534;DHT22;17318;52.390;9.754;2023-06-19T04:28:17;22.20;73.90
30534;DHT22;17318;52.390;9.754;2023-06-19T04:30:43;22.20;73.70
30534;DHT22;17318;52.390;9.754;2023-06-19T04:33:08;22.20;74.00
30534;DHT22;17318;52.390;9.754;2023-06-19T04:35:34;22.20;74.60
30534;DHT22;17318;52.390;9.754;2023-06-19T04:38:05;22.20;74.20
30534;DHT22;17318;52.390;9.754;2023-06-19T04:40:31;22.20;74.20
30534;DHT22;17318;52.390;9.754;2023-06-19T04:42:58;22.30;73.80
30534;DHT22;17318;52.390;9.754;2023-06-19T04:45:24;22.20;74.00
30534;DHT22;17318;52.390;9.754;2023-06-19T04:47:49;22.20;73.70
30534;DHT22;17318;52.390;9.754;2023-06-19T04:50:15;22.30;73.60
30534;DHT22;17318;52.390;9.754;2023-06-19T04:52:41;22.40;73.90
30534;DHT22;17318;52.390;9.754;2023-06-19T04:55:07;22.40;74.60
30534;DHT22;17318;52.390;9.754;2023-06-19T04:57:37;22.40;74.80
30534;DHT22;17318;52.390;9.754;2023-06-19T05:00:06;22.40;75.70
30534;DHT22;17318;52.390;9.754;2023-06-19T05:02:33;22.30;75.30
30534;DHT22;17318;52.390;9.754;2023-06-19T05:04:59;22.30;75.90
30534;DHT22;17318;52.390;9.754;2023-06-19T05:07:29;22.30;75.80
30534;DHT22;17318;52.390;9.754;2023-06-19T05:09:56;22.30;76.20
30534;DHT22;17318;52.390;9.754;2023-06-19T05:12:22;22.30;75.90
30534;DHT22;17318;52.390;9.754;2023-06-19T05:14:48;22.30;76.70
30534;DHT22;17318;52.390;9.754;2023-06-19T05:17:13;22.30;77.20
30534;DHT22;17318;52.390;9.754;2023-06-19T05:19:39;22.40;77.20
30534;DHT22;17318;52.390;9.754;2023-06-19T05:22:05;22.50;78.50
30534;DHT22;17318;52.390;9.754;2023-06-19T05:24:32;22.50;78.80
30534;DHT22;17318;52.390;9.754;2023-06-19T05:26:57;22.60;77.90
30534;DHT22;17318;52.390;9.754;2023-06-19T05:29:23;22.60;77.80
30534;DHT22;17318;52.390;9.754;2023-06-19T05:31:49;22.60;79.00
30534;DHT22;17318;52.390;9.754;2023-06-19T05:34:14;22.50;79.70
30534;DHT22;17318;52.390;9.754;2023-06-19T05:36:40;22.40;80.60
30534;DHT22;17318;52.390;9.754;2023-06-19T05:39:06;22.30;80.50
30534;DHT22;17318;52.390;9.754;2023-06-19T05:41:31;22.40;80.70
30534;DHT22;17318;52.390;9.754;2023-06-19T05:43:57;22.30;80.20
30534;DHT22;17318;52.390;9.754;2023-06-19T05:46:23;22.30;80.10
30534;DHT22;17318;52.390;9.754;2023-06-19T05:48:49;22.20;80.40
30534;DHT22;17318;52.390;9.754;2023-06-19T05:51:14;22.20;80.20
30534;DHT22;17318;52.390;9.754;2023-06-19T05:53:40;22.20;80.60
30534;DHT22;17318;52.390;9.754;2023-06-19T05:56:06;22.30;80.20
30534;DHT22;17318;52.390;9.754;2023-06-19T05:58:32;22.40;80.00
30534;DHT22;17318;52.390;9.754;2023-06-19T06:00:58;22.30;79.90
30534;DHT22;17318;52.390;9.754;2023-06-19T06:03:27;22.40;79.90
30534;DHT22;17318;52.390;9.754;2023-06-19T06:05:53;22.30;80.10
30534;DHT22;17318;52.390;9.754;2023-06-19T06:08:19;22.20;79.90
30534;DHT22;17318;52.390;9.754;2023-06-19T06:10:45;22.30;79.80
30534;DHT22;17318;52.390;9.754;2023-06-19T06:13:10;22.30;79.70
30534;DHT22;17318;52.390;9.754;2023-06-19T06:15:36;22.30;80.20
30534;DHT22;17318;52.390;9.754;2023-06-19T06:18:02;22.30;80.40
30534;DHT22;17318;52.390;9.754;2023-06-19T06:20:28;22.30;80.40
30534;DHT22;17318;52.390;9.754;2023-06-19T06:22:54;22.40;80.30
30534;DHT22;17318;52.390;9.754;2023-06-19T06:25:20;22.50;80.70
30534;DHT22;17318;52.390;9.754;2023-06-19T06:27:46;22.40;80.80
30534;DHT22;17318;52.390;9.754;2023-06-19T06:30:12;22.50;81.60
30534;DHT22;17318;52.390;9.754;2023-06-19T06:32:38;22.40;81.60
30534;DHT22;17318;52.390;9.754;2023-06-19T06:35:04;22.50;81.80
30534;DHT22;17318;52.390;9.754;2023-06-19T06:37:30;22.50;82.90
30534;DHT22;17318;52.390;9.754;2023-06-19T06:39:55;22.50;82.90
30534;DHT22;17318;52.390;9.754;2023-06-19T06:42:21;22.50;83.10
30534;DHT22;17318;52.390;9.754;2023-06-19T06:44:47;22.60;82.70
30534;DHT22;17318;52.390;9.754;2023-06-19T06:47:12;22.60;83.00
30534;DHT22;17318;52.390;9.754;2023-06-19T06:49:38;22.60;82.80
30534;DHT22;17318;52.390;9.754;2023-06-19T06:52:04;22.70;82.80
30534;DHT22;17318;52.390;9.754;2023-06-19T06:54:30;22.70;82.70
30534;DHT22;17318;52.390;9.754;2023-06-19T06:56:56;22.70;83.00
30534;DHT22;17318;52.390;9.754;2023-06-19T06:59:24;22.70;83.20
30534;DHT22;17318;52.390;9.754;2023-06-19T07:01:50;22.80;82.80
30534;DHT22;17318;52.390;9.754;2023-06-19T07:04:15;22.80;82.50
30534;DHT22;17318;52.390;9.754;2023-06-19T07:06:41;22.80;82.20
30534;DHT22;17318;52.390;9.754;2023-06-19T07:09:07;22.90;81.70
30534;DHT22;17318;52.390;9.754;2023-06-19T07:11:33;23.00;81.50
30534;DHT22;17318;52.390;9.754;2023-06-19T07:13:58;23.10;81.50
30534;DHT22;17318;52.390;9.754;2023-06-19T07:16:24;23.20;81.10
30534;DHT22;17318;52.390;9.754;2023-06-19T07:18:50;23.30;81.00
30534;DHT22;17318;52.390;9.754;2023-06-19T07:21:15;23.40;80.80
30534;DHT22;17318;52.390;9.754;2023-06-19T07:23:42;23.60;80.40
30534;DHT22;17318;52.390;9.754;2023-06-19T07:26:10;23.60;80.40
30534;DHT22;17318;52.390;9.754;2023-06-19T07:28:36;23.60;80.30
30534;DHT22;17318;52.390;9.754;2023-06-19T07:31:02;23.70;79.50
30534;DHT22;17318;52.390;9.754;2023-06-19T07:33:28;23.80;79.30
30534;DHT22;17318;52.390;9.754;2023-06-19T07:35:55;23.90;79.40
30534;DHT22;17318;52.390;9.754;2023-06-19T07:38:21;24.00;79.00
30534;DHT22;17318;52.390;9.754;2023-06-19T07:40:46;24.20;77.90
30534;DHT22;17318;52.390;9.754;2023-06-19T07:43:12;24.20;77.90
30534;DHT22;17318;52.390;9.754;2023-06-19T07:45:37;24.20;77.50
30534;DHT22;17318;52.390;9.754;2023-06-19T07:48:03;24.30;77.50
30534;DHT22;17318;52.390;9.754;2023-06-19T07:50:29;24.40;77.60
30534;DHT22;17318;52.390;9.754;2023-06-19T07:52:55;24.60;77.90
30534;DHT22;17318;52.390;9.754;2023-06-19T07:55:20;24.60;77.90
30534;DHT22;17318;52.390;9.754;2023-06-19T07:57:46;24.90;78.20
30534;DHT22;17318;52.390;9.754;2023-06-19T08:00:12;25.10;78.00
30534;DHT22;17318;52.390;9.754;2023-06-19T08:02:39;25.30;77.90
30534;DHT22;17318;52.390;9.754;2023-06-19T08:05:07;25.40;78.00
30534;DHT22;17318;52.390;9.754;2023-06-19T08:07:34;25.60;77.30
30534;DHT22;17318;52.390;9.754;2023-06-19T08:09:59;25.80;77.70
30534;DHT22;17318;52.390;9.754;2023-06-19T08:12:25;26.00;76.80
30534;DHT22;17318;52.390;9.754;2023-06-19T08:14:51;26.20;76.20
30534;DHT22;17318;52.390;9.754;2023-06-19T08:17:17;26.10;75.80
30534;DHT22;17318;52.390;9.754;2023-06-19T08:19:42;26.30;76.10
30534;DHT22;17318;52.390;9.754;2023-06-19T08:22:08;26.50;75.90
30534;DHT22;17318;52.390;9.754;2023-06-19T08:24:36;26.70;75.70
30534;DHT22;17318;52.390;9.754;2023-06-19T08:27:02;26.90;75.20
30534;DHT22;17318;52.390;9.754;2023-06-19T08:29:28;26.90;74.70
30534;DHT22;17318;52.390;9.754;2023-06-19T08:31:53;27.00;74.40
30534;DHT22;17318;52.390;9.754;2023-06-19T08:34:19;27.10;74.70
30534;DHT22;17318;52.390;9.754;2023-06-19T08:36:45;27.40;74.30
30534;DHT22;17318;52.390;9.754;2023-06-19T08:39:10;27.40;73.90
30534;DHT22;17318;52.390;9.754;2023-06-19T08:41:37;27.70;72.90
30534;DHT22;17318;52.390;9.754;2023-06-19T08:44:05;28.00;72.80
30534;DHT22;17318;52.390;9.754;2023-06-19T08:46:30;28.50;72.70
30534;DHT22;17318;52.390;9.754;2023-06-19T08:48:56;29.00;71.50
30534;DHT22;17318;52.390;9.754;2023-06-19T08:51:22;30.10;70.30
30534;DHT22;17318;52.390;9.754;2023-06-19T08:53:54;30.70;68.60
30534;DHT22;17318;52.390;9.754;2023-06-19T08:56:20;31.10;68.50
30534;DHT22;17318;52.390;9.754;2023-06-19T08:58:46;31.40;66.20
30534;DHT22;17318;52.390;9.754;2023-06-19T09:01:16;31.90;65.30
30534;DHT22;17318;52.390;9.754;2023-06-19T09:03:42;31.70;64.70
30534;DHT22;17318;52.390;9.754;2023-06-19T09:06:08;31.40;65.60
30534;DHT22;17318;52.390;9.754;2023-06-19T09:08:34;31.30;64.80
30534;DHT22;17318;52.390;9.754;2023-06-19T09:11:03;31.40;64.90
30534;DHT22;17318;52.390;9.754;2023-06-19T09:13:31;31.50;64.60
30534;DHT22;17318;52.390;9.754;2023-06-19T09:18:24;32.40;63.50
30534;DHT22;17318;52.390;9.754;2023-06-19T09:20:52;31.70;63.70
30534;DHT22;17318;52.390;9.754;2023-06-19T09:23:19;31.60;63.90
30534;DHT22;17318;52.390;9.754;2023-06-19T09:25:50;31.00;65.50
30534;DHT22;17318;52.390;9.754;2023-06-19T09:28:21;30.70;65.90
30534;DHT22;17318;52.390;9.754;2023-06-19T09:33:19;31.30;65.70
30534;DHT22;17318;52.390;9.754;2023-06-19T09:35:45;31.10;65.40
30534;DHT22;17318;52.390;9.754;2023-06-19T09:38:11;30.80;66.00
30534;DHT22;17318;52.390;9.754;2023-06-19T09:40:38;30.50;66.50
30534;DHT22;17318;52.390;9.754;2023-06-19T09:43:05;30.70;66.70
30534;DHT22;17318;52.390;9.754;2023-06-19T09:45:32;30.50;67.30
30534;DHT22;17318;52.390;9.754;2023-06-19T09:47:59;30.30;66.80
30534;DHT22;17318;52.390;9.754;2023-06-19T09:50:27;30.60;67.10
30534;DHT22;17318;52.390;9.754;2023-06-19T09:52:52;30.70;67.00
30534;DHT22;17318;52.390;9.754;2023-06-19T09:55:20;30.70;66.50
30534;DHT22;17318;52.390;9.754;2023-06-19T09:57:49;30.40;67.00
30534;DHT22;17318;52.390;9.754;2023-06-19T10:00:16;30.20;67.60
30534;DHT22;17318;52.390;9.754;2023-06-19T10:02:48;30.10;68.50
30534;DHT22;17318;52.390;9.754;2023-06-19T10:05:14;30.10;68.40
30534;DHT22;17318;52.390;9.754;2023-06-19T10:07:44;29.80;69.30
30534;DHT22;17318;52.390;9.754;2023-06-19T10:10:23;29.60;69.30
30534;DHT22;17318;52.390;9.754;2023-06-19T10:12:50;29.90;69.60
30534;DHT22;17318;52.390;9.754;2023-06-19T10:15:21;29.90;69.30
30534;DHT22;17318;52.390;9.754;2023-06-19T10:17:59;30.00;69.50
30534;DHT22;17318;52.390;9.754;2023-06-19T10:20:26;29.80;69.60
30534;DHT22;17318;52.390;9.754;2023-06-19T10:25:34;29.50;69.40
30534;DHT22;17318;52.390;9.754;2023-06-19T10:28:01;29.40;70.00
30534;DHT22;17318;52.390;9.754;2023-06-19T10:30:28;29.50;69.90
30534;DHT22;17318;52.390;9.754;2023-06-19T10:32:55;29.30;70.80
30534;DHT22;17318;52.390;9.754;2023-06-19T10:35:21;29.60;70.80
30534;DHT22;17318;52.390;9.754;2023-06-19T10:37:47;29.60;70.50
30534;DHT22;17318;52.390;9.754;2023-06-19T10:40:13;29.90;70.70
30534;DHT22;17318;52.390;9.754;2023-06-19T10:42:40;29.70;70.40
30534;DHT22;17318;52.390;9.754;2023-06-19T10:45:08;29.70;70.30
30534;DHT22;17318;52.390;9.754;2023-06-19T10:47:43;29.50;70.50
30534;DHT22;17318;52.390;9.754;2023-06-19T10:50:15;29.60;70.80
30534;DHT22;17318;52.390;9.754;2023-06-19T10:52:42;29.10;71.10
30534;DHT22;17318;52.390;9.754;2023-06-19T10:55:09;29.50;71.30
30534;DHT22;17318;52.390;9.754;2023-06-19T10:57:35;29.70;70.90
30534;DHT22;17318;52.390;9.754;2023-06-19T11:00:01;30.00;70.40
30534;DHT22;17318;52.390;9.754;2023-06-19T11:02:31;30.00;69.80
30534;DHT22;17318;52.390;9.754;2023-06-19T11:04:57;29.50;71.00
30534;DHT22;17318;52.390;9.754;2023-06-19T11:07:23;29.80;70.80
30534;DHT22;17318;52.390;9.754;2023-06-19T11:09:49;29.90;70.00
30534;DHT22;17318;52.390;9.754;2023-06-19T11:12:21;29.50;69.90
30534;DHT22;17318;52.390;9.754;2023-06-19T11:14:50;29.40;70.00
30534;DHT22;17318;52.390;9.754;2023-06-19T11:17:16;29.50;69.70
30534;DHT22;17318;52.390;9.754;2023-06-19T11:19:46;29.80;69.10
30534;DHT22;17318;52.390;9.754;2023-06-19T11:22:11;29.70;68.90
30534;DHT22;17318;52.390;9.754;2023-06-19T11:24:46;29.50;69.10
30534;DHT22;17318;52.390;9.754;2023-06-19T11:27:22;29.50;69.40
30534;DHT22;17318;52.390;9.754;2023-06-19T11:29:59;29.30;69.80
30534;DHT22;17318;52.390;9.754;2023-06-19T11:32:31;29.30;70.00
30534;DHT22;17318;52.390;9.754;2023-06-19T11:34:57;29.40;69.70
30534;DHT22;17318;52.390;9.754;2023-06-19T11:37:29;29.30;68.90
30534;DHT22;17318;52.390;9.754;2023-06-19T11:39:57;29.40;69.20
30534;DHT22;17318;52.390;9.754;2023-06-19T11:42:22;29.20;68.80
30534;DHT22;17318;52.390;9.754;2023-06-19T11:45:00;29.10;69.30
30534;DHT22;17318;52.390;9.754;2023-06-19T11:47:30;29.10;69.20
30534;DHT22;17318;52.390;9.754;2023-06-19T11:49:56;29.10;69.20
30534;DHT22;17318;52.390;9.754;2023-06-19T11:52:21;28.80;70.00
30534;DHT22;17318;52.390;9.754;2023-06-19T11:54:47;28.80;70.00
30534;DHT22;17318;52.390;9.754;2023-06-19T11:57:13;28.90;69.60
30534;DHT22;17318;52.390;9.754;2023-06-19T11:59:42;28.80;69.70
30534;DHT22;17318;52.390;9.754;2023-06-19T12:02:08;28.80;69.60
30534;DHT22;17318;52.390;9.754;2023-06-19T12:04:35;28.90;70.10
30534;DHT22;17318;52.390;9.754;2023-06-19T12:07:01;29.10;70.00
30534;DHT22;17318;52.390;9.754;2023-06-19T12:09:27;29.20;70.20
30534;DHT22;17318;52.390;9.754;2023-06-19T12:11:53;29.40;70.50
30534;DHT22;17318;52.390;9.754;2023-06-19T12:14:19;29.30;70.10
30534;DHT22;17318;52.390;9.754;2023-06-19T12:16:46;29.10;70.60
30534;DHT22;17318;52.390;9.754;2023-06-19T12:19:12;29.10;71.20
30534;DHT22;17318;52.390;9.754;2023-06-19T12:21:38;29.10;70.80
30534;DHT22;17318;52.390;9.754;2023-06-19T12:24:04;29.00;70.70
30534;DHT22;17318;52.390;9.754;2023-06-19T12:26:30;29.00;70.80
30534;DHT22;17318;52.390;9.754;2023-06-19T12:28:55;29.00;70.90
30534;DHT22;17318;52.390;9.754;2023-06-19T12:31:21;29.00;71.00
30534;DHT22;17318;52.390;9.754;2023-06-19T12:33:47;29.20;70.40
30534;DHT22;17318;52.390;9.754;2023-06-19T12:36:16;29.00;69.80
30534;DHT22;17318;52.390;9.754;2023-06-19T12:38:42;28.90;70.50
30534;DHT22;17318;52.390;9.754;2023-06-19T12:41:07;28.90;70.40
30534;DHT22;17318;52.390;9.754;2023-06-19T12:43:33;29.00;70.00
30534;DHT22;17318;52.390;9.754;2023-06-19T12:45:59;28.40;70.40
30534;DHT22;17318;52.390;9.754;2023-06-19T12:48:26;28.60;70.70
30534;DHT22;17318;52.390;9.754;2023-06-19T12:50:52;28.50;70.70
30534;DHT22;17318;52.390;9.754;2023-06-19T12:53:17;28.60;70.90
30534;DHT22;17318;52.390;9.754;2023-06-19T12:55:43;28.60;70.70
30534;DHT22;17318;52.390;9.754;2023-06-19T12:58:09;28.60;70.60
30534;DHT22;17318;52.390;9.754;2023-06-19T13:00:36;28.70;70.40
30534;DHT22;17318;52.390;9.754;2023-06-19T13:03:02;28.40;70.80
30534;DHT22;17318;52.390;9.754;2023-06-19T13:05:28;28.60;70.60
30534;DHT22;17318;52.390;9.754;2023-06-19T13:07:54;28.40;71.20
30534;DHT22;17318;52.390;9.754;2023-06-19T13:10:20;28.10;71.70
30534;DHT22;17318;52.390;9.754;2023-06-19T13:12:45;28.20;72.10
30534;DHT22;17318;52.390;9.754;2023-06-19T13:15:11;28.00;71.80
30534;DHT22;17318;52.390;9.754;2023-06-19T13:17:37;28.30;71.30
30534;DHT22;17318;52.390;9.754;2023-06-19T13:20:03;28.40;70.80
30534;DHT22;17318;52.390;9.754;2023-06-19T13:22:32;28.50;70.10
30534;DHT22;17318;52.390;9.754;2023-06-19T13:24:57;28.40;70.40
30534;DHT22;17318;52.390;9.754;2023-06-19T13:27:23;28.30;70.80
30534;DHT22;17318;52.390;9.754;2023-06-19T13:29:49;28.30;71.30
30534;DHT22;17318;52.390;9.754;2023-06-19T13:32:14;28.20;71.50
30534;DHT22;17318;52.390;9.754;2023-06-19T13:34:40;28.20;71.50
30534;DHT22;17318;52.390;9.754;2023-06-19T13:37:06;28.20;71.50
30534;DHT22;17318;52.390;9.754;2023-06-19T13:39:31;28.30;71.60
30534;DHT22;17318;52.390;9.754;2023-06-19T13:41:57;28.10;71.00
30534;DHT22;17318;52.390;9.754;2023-06-19T13:44:26;28.10;70.80
30534;DHT22;17318;52.390;9.754;2023-06-19T13:46:51;28.20;70.60
30534;DHT22;17318;52.390;9.754;2023-06-19T13:49:17;28.20;70.70
30534;DHT22;17318;52.390;9.754;2023-06-19T13:51:42;28.20;70.60
30534;DHT22;17318;52.390;9.754;2023-06-19T13:54:09;28.20;70.50
30534;DHT22;17318;52.390;9.754;2023-06-19T13:56:35;28.20;70.70
30534;DHT22;17318;52.390;9.754;2023-06-19T13:59:03;28.20;70.70
30534;DHT22;17318;52.390;9.754;2023-06-19T14:01:29;28.20;70.30
30534;DHT22;17318;52.390;9.754;2023-06-19T14:03:54;28.30;69.80
30534;DHT22;17318;52.390;9.754;2023-06-19T14:06:23;28.20;70.00
30534;DHT22;17318;52.390;9.754;2023-06-19T14:08:49;28.10;69.90
30534;DHT22;17318;52.390;9.754;2023-06-19T14:11:14;28.00;69.70
30534;DHT22;17318;52.390;9.754;2023-06-19T14:13:40;28.10;69.10
30534;DHT22;17318;52.390;9.754;2023-06-19T14:16:06;27.90;69.20
30534;DHT22;17318;52.390;9.754;2023-06-19T14:18:32;28.00;68.50
30534;DHT22;17318;52.390;9.754;2023-06-19T14:20:58;27.90;68.80
30534;DHT22;17318;52.390;9.754;2023-06-19T14:23:24;27.80;68.00
30534;DHT22;17318;52.390;9.754;2023-06-19T14:25:50;27.90;68.70
30534;DHT22;17318;52.390;9.754;2023-06-19T14:28:15;27.80;68.60
30534;DHT22;17318;52.390;9.754;2023-06-19T14:30:41;27.80;68.30
30534;DHT22;17318;52.390;9.754;2023-06-19T14:33:07;27.60;69.00
30534;DHT22;17318;52.390;9.754;2023-06-19T14:35:35;27.50;69.90
30534;DHT22;17318;52.390;9.754;2023-06-19T14:38:01;27.60;70.20
30534;DHT22;17318;52.390;9.754;2023-06-19T14:40:27;27.70;69.70
30534;DHT22;17318;52.390;9.754;2023-06-19T14:42:52;27.70;69.70
30534;DHT22;17318;52.390;9.754;2023-06-19T14:45:18;27.70;70.10
30534;DHT22;17318;52.390;9.754;2023-06-19T14:47:44;27.60;70.40
30534;DHT22;17318;52.390;9.754;2023-06-19T14:50:09;27.50;71.30
30534;DHT22;17318;52.390;9.754;2023-06-19T14:52:35;27.70;70.90
30534;DHT22;17318;52.390;9.754;2023-06-19T14:55:00;27.80;69.90
30534;DHT22;17318;52.390;9.754;2023-06-19T14:57:26;27.80;69.80
30534;DHT22;17318;52.390;9.754;2023-06-19T14:59:52;27.80;69.70
30534;DHT22;17318;52.390;9.754;2023-06-19T15:02:17;27.70;69.70
30534;DHT22;17318;52.390;9.754;2023-06-19T15:04:43;27.80;69.70
30534;DHT22;17318;52.390;9.754;2023-06-19T15:07:09;27.70;69.60
30534;DHT22;17318;52.390;9.754;2023-06-19T15:09:34;27.70;69.90
30534;DHT22;17318;52.390;9.754;2023-06-19T15:12:00;27.80;69.60
30534;DHT22;17318;52.390;9.754;2023-06-19T15:14:26;27.80;69.70
30534;DHT22;17318;52.390;9.754;2023-06-19T15:16:52;27.80;69.40
30534;DHT22;17318;52.390;9.754;2023-06-19T15:19:17;27.80;69.60
30534;DHT22;17318;52.390;9.754;2023-06-19T15:21:43;27.90;69.50
30534;DHT22;17318;52.390;9.754;2023-06-19T15:24:11;27.90;68.70
30534;DHT22;17318;52.390;9.754;2023-06-19T15:26:37;27.70;67.90
30534;DHT22;17318;52.390;9.754;2023-06-19T15:29:02;27.70;69.10
30534;DHT22;17318;52.390;9.754;2023-06-19T15:31:28;27.70;68.60
30534;DHT22;17318;52.390;9.754;2023-06-19T15:33:54;27.50;68.60